FW4242 Weather Reports


Display with metric or nautical units.
time (UTC)temp
F
wind
direction
speed
MPH
gust
MPH
rain 1hr
in
rain 24hr
in
rain mn
in
humidity
%
barometer
mb
20210922123107 56 127 0.0 0.0 0.00 0.00 0.00 78 1015.8
20210922121550 57 127 0.0 0.0 0.00 0.00 0.00 77 1015.8
20210922120119 57 127 0.0 0.0 0.00 0.00 0.00 76 1015.8
20210922114615 57 127 0.0 0.0 0.00 0.00 0.00 75 1015.8
20210922113132 58 132 0.0 2.0 0.00 0.00 0.00 74 1015.6
20210922111600 57 93 0.0 0.0 0.00 0.00 0.00 76 1015.5
20210922110230 58 11 0.0 0.0 0.00 0.00 0.00 74 1015.5
20210922104542 59 65 0.0 5.0 0.00 0.00 0.00 73 1015.3
20210922103046 57 103 0.0 1.0 0.00 0.00 0.00 78 1015.4
20210922101609 57 115 0.0 0.0 0.00 0.00 0.00 77 1015.3
20210922100134 58 74 0.0 1.0 0.00 0.00 0.00 76 1015.3
20210922094543 58 55 0.0 1.0 0.00 0.00 0.00 74 1015.1
20210922093044 59 105 0.0 1.0 0.00 0.00 0.00 73 1015.0
20210922091546 60 94 1.0 2.0 0.00 0.00 0.00 72 1015.0
20210922090038 61 71 1.0 6.0 0.00 0.00 0.00 70 1014.9
20210922084550 61 101 0.0 3.0 0.00 0.00 0.00 70 1014.9
20210922083053 62 71 2.0 5.0 0.00 0.00 0.00 68 1014.9
20210922080014 63 94 0.0 4.0 0.00 0.00 0.00 67 1014.9
20210922074512 62 98 0.0 1.0 0.00 0.00 0.00 69 1015.0
20210922073022 63 85 0.0 0.0 0.00 0.00 0.00 69 1014.8
20210922071527 63 89 0.0 0.0 0.00 0.00 0.00 68 1014.9
20210922070017 62 105 0.0 0.0 0.00 0.00 0.00 71 1014.9
20210922064540 62 105 0.0 0.0 0.00 0.00 0.00 70 1015.0
20210922063011 65 91 0.0 1.0 0.00 0.00 0.00 66 1014.9
20210922061513 66 78 0.0 3.0 0.00 0.00 0.00 65 1014.9
20210922060007 66 65 1.0 7.0 0.00 0.00 0.00 64 1014.9
20210922054520 66 98 0.0 4.0 0.00 0.00 0.00 64 1015.0
20210922053005 65 352 0.0 0.0 0.00 0.00 0.00 65 1015.0
20210922051504 65 352 0.0 0.0 0.00 0.00 0.00 64 1015.1
20210922050006 65 352 0.0 0.0 0.00 0.00 0.00 63 1015.1
20210922044514 66 77 0.0 2.0 0.00 0.00 0.00 62 1015.2
20210922043002 67 79 0.0 0.0 0.00 0.00 0.00 60 1015.1
20210922041502 67 75 0.0 1.0 0.00 0.00 0.00 57 1015.0
20210922040002 67 73 0.0 1.0 0.00 0.00 0.00 57 1015.0
20210922034501 67 64 0.0 0.0 0.00 0.00 0.00 57 1015.1
20210922033128 68 64 0.0 0.0 0.00 0.00 0.00 54 1015.0
20210922031711 70 62 0.0 0.0 0.00 0.00 0.00 51 1014.8
20210922024707 72 64 0.0 0.0 0.00 0.00 0.00 45 1014.6
20210922023209 74 71 0.0 2.0 0.00 0.00 0.00 42 1014.5
20210922021619 75 88 0.0 0.0 0.00 0.00 0.00 42 1014.3
20210922020134 77 87 0.0 7.0 0.00 0.00 0.00 39 1014.1
20210922014645 78 118 4.0 9.0 0.00 0.00 0.00 37 1014.2
20210922013120 80 80 4.0 10.0 0.00 0.00 0.00 36 1014.2
20210922011610 80 105 6.0 12.0 0.00 0.00 0.00 35 1014.3
20210922010118 81 79 3.0 12.0 0.00 0.00 0.00 35 1014.4
20210922004656 81 64 6.0 11.0 0.00 0.00 0.00 34 1014.5
20210922003138 82 82 1.0 8.0 0.00 0.00 0.00 35 1014.7
20210922001838 82 67 2.0 10.0 0.00 0.00 0.00 35 1014.7
20210922000106 82 100 3.0 10.0 0.00 0.00 0.00 34 1014.9
20210921234612 82 61 4.0 12.0 0.00 0.00 0.00 35 1014.9
20210921233143 82 58 5.0 9.0 0.00 0.00 0.00 35 1014.9
20210921231635 82 230 3.0 10.0 0.00 0.00 0.00 35 1015.0
20210921230110 82 100 7.0 14.0 0.00 0.00 0.00 35 1015.0
20210921224616 81 54 6.0 13.0 0.00 0.00 0.00 36 1014.9
20210921223112 80 77 7.0 16.0 0.00 0.00 0.00 36 1015.0
20210921221555 80 127 8.0 16.0 0.00 0.00 0.00 36 1015.0
20210921220054 80 75 7.0 14.0 0.00 0.00 0.00 36 1015.1
20210921213049 79 131 5.0 14.0 0.00 0.00 0.00 38 1015.6
20210921211549 78 84 4.0 15.0 0.00 0.00 0.00 39 1015.8
20210921210039 78 32 6.0 14.0 0.00 0.00 0.00 39 1016.0
20210921204606 77 82 6.0 17.0 0.00 0.00 0.00 39 1016.4
20210921203201 77 119 3.0 15.0 0.00 0.00 0.00 40 1016.5
20210921201526 77 51 5.0 14.0 0.00 0.00 0.00 40 1016.7
20210921200040 77 15 2.0 8.0 0.00 0.00 0.00 40 1016.8
20210921194526 75 82 6.0 18.0 0.00 0.00 0.00 41 1016.9
20210921193047 75 92 8.0 15.0 0.00 0.00 0.00 41 1017.2
20210921191526 75 61 6.0 17.0 0.00 0.00 0.00 42 1017.5
20210921190022 74 115 4.0 14.0 0.00 0.00 0.00 43 1017.6
20210921184521 73 109 6.0 16.0 0.00 0.00 0.00 43 1017.7
20210921183010 72 94 8.0 15.0 0.00 0.00 0.00 43 1018.0
20210921181505 72 60 8.0 18.0 0.00 0.00 0.00 44 1018.2
20210921180025 71 70 8.0 18.0 0.00 0.00 0.00 45 1018.3
20210921174708 70 110 7.0 16.0 0.00 0.00 0.00 46 1018.5
20210921173103 69 174 4.0 13.0 0.00 0.00 0.00 47 1018.8
20210921171616 69 90 10.0 16.0 0.00 0.00 0.00 49 1018.8
20210921170059 67 114 3.0 14.0 0.00 0.00 0.00 53 1019.0
20210921164607 62 70 0.0 5.0 0.00 0.00 0.00 68 1019.1
20210921163205 60 15 2.0 7.0 0.00 0.00 0.00 73 1019.3
20210921161549 59 307 2.0 6.0 0.00 0.00 0.00 76 1019.5
20210921160048 58 334 1.0 5.0 0.00 0.00 0.00 79 1019.5
20210921154535 56 312 2.0 6.0 0.00 0.00 0.00 83 1019.6
20210921153031 54 297 2.0 9.0 0.00 0.00 0.00 85 1019.8
20210921151538 54 324 2.0 5.0 0.00 0.00 0.00 86 1020.0
20210921150111 53 336 1.0 6.0 0.00 0.00 0.00 86 1019.9
20210921144601 53 328 3.0 5.0 0.00 0.00 0.00 87 1020.1
20210921143048 52 297 2.0 6.0 0.00 0.00 0.00 88 1020.2
20210921141529 52 287 1.0 3.0 0.00 0.00 0.00 88 1020.0
20210921140027 52 278 0.0 4.0 0.00 0.00 0.00 89 1020.0
20210921134543 51 318 0.0 3.0 0.00 0.00 0.00 91 1020.1
20210921133110 51 304 0.0 3.0 0.00 0.00 0.00 92 1020.2
20210921131538 51 304 0.0 4.0 0.00 0.00 0.00 91 1020.3
20210921130022 52 288 0.0 2.0 0.00 0.00 0.00 92 1020.4
20210921124535 52 317 0.0 4.0 0.00 0.01 0.00 91 1020.6